sensor_id;sensor_type;location;lat;lon;timestamp;temperature;humidity
66873;HTU21D;53781;51.090;5.884;2022-09-27T00:00:05;13.02;80.94
66873;HTU21D;53781;51.090;5.884;2022-09-27T00:00:26;13.01;80.87
66873;HTU21D;53781;51.090;5.884;2022-09-27T00:00:41;13.00;80.89
66873;HTU21D;53781;51.090;5.884;2022-09-27T00:01:09;13.00;80.85
66873;HTU21D;53781;51.090;5.884;2022-09-27T00:01:23;12.99;80.86
66873;HTU21D;53781;51.090;5.884;2022-09-27T00:01:38;12.99;80.85
66873;HTU21D;53781;51.090;5.884;2022-09-27T00:01:54;13.00;80.85
66873;HTU21D;53781;51.090;5.884;2022-09-27T00:02:08;12.99;80.84
66873;HTU21D;53781;51.090;5.884;2022-09-27T00:02:23;12.99;80.77
66873;HTU21D;53781;51.090;5.884;2022-09-27T00:02:38;12.97;80.82
66873;HTU21D;53781;51.090;5.884;2022-09-27T00:02:52;12.97;80.88
66873;HTU21D;53781;51.090;5.884;2022-09-27T00:03:11;13.00;80.85
66873;HTU21D;53781;51.090;5.884;2022-09-27T00:03:27;12.99;80.88
66873;HTU21D;53781;51.090;5.884;2022-09-27T00:03:42;12.95;80.87
66873;HTU21D;53781;51.090;5.884;2022-09-27T00:03:57;12.97;80.79
66873;HTU21D;53781;51.090;5.884;2022-09-27T00:04:14;12.97;80.83
66873;HTU21D;53781;51.090;5.884;2022-09-27T00:04:28;12.96;80.80
66873;HTU21D;53781;51.090;5.884;2022-09-27T00:04:43;12.95;80.87
66873;HTU21D;53781;51.090;5.884;2022-09-27T00:04:58;12.97;80.89
66873;HTU21D;53781;51.090;5.884;2022-09-27T00:05:12;12.95;80.92
66873;HTU21D;53781;51.090;5.884;2022-09-27T00:05:28;12.96;80.94
66873;HTU21D;53781;51.090;5.884;2022-09-27T00:05:43;12.95;81.02
66873;HTU21D;53781;51.090;5.884;2022-09-27T00:06:23;12.95;81.05
66873;HTU21D;53781;51.090;5.884;2022-09-27T00:06:38;12.95;81.01
66873;HTU21D;53781;51.090;5.884;2022-09-27T00:06:53;12.96;80.96
66873;HTU21D;53781;51.090;5.884;2022-09-27T00:07:08;12.96;81.04
66873;HTU21D;53781;51.090;5.884;2022-09-27T00:07:24;12.96;80.96
66873;HTU21D;53781;51.090;5.884;2022-09-27T00:07:39;12.96;80.99
66873;HTU21D;53781;51.090;5.884;2022-09-27T00:07:54;12.95;81.05
66873;HTU21D;53781;51.090;5.884;2022-09-27T00:08:10;12.93;81.07
66873;HTU21D;53781;51.090;5.884;2022-09-27T00:08:24;12.94;81.11
66873;HTU21D;53781;51.090;5.884;2022-09-27T00:08:40;12.94;81.10
66873;HTU21D;53781;51.090;5.884;2022-09-27T00:08:56;12.94;81.05
66873;HTU21D;53781;51.090;5.884;2022-09-27T00:09:11;12.94;81.09
66873;HTU21D;53781;51.090;5.884;2022-09-27T00:09:26;12.93;81.07
66873;HTU21D;53781;51.090;5.884;2022-09-27T00:09:41;12.93;81.05
66873;HTU21D;53781;51.090;5.884;2022-09-27T00:09:56;12.94;81.07
66873;HTU21D;53781;51.090;5.884;2022-09-27T00:10:11;12.94;81.03
66873;HTU21D;53781;51.090;5.884;2022-09-27T00:10:26;12.94;81.10
66873;HTU21D;53781;51.090;5.884;2022-09-27T00:10:42;12.93;81.06
66873;HTU21D;53781;51.090;5.884;2022-09-27T00:10:59;12.93;81.02
66873;HTU21D;53781;51.090;5.884;2022-09-27T00:11:27;12.93;81.00
66873;HTU21D;53781;51.090;5.884;2022-09-27T00:11:43;12.92;80.98
66873;HTU21D;53781;51.090;5.884;2022-09-27T00:11:57;12.94;80.99
66873;HTU21D;53781;51.090;5.884;2022-09-27T00:12:12;12.92;80.94
66873;HTU21D;53781;51.090;5.884;2022-09-27T00:12:27;12.92;80.95
66873;HTU21D;53781;51.090;5.884;2022-09-27T00:12:42;12.92;80.94
66873;HTU21D;53781;51.090;5.884;2022-09-27T00:12:57;12.91;80.94
66873;HTU21D;53781;51.090;5.884;2022-09-27T00:13:12;12.90;80.96
66873;HTU21D;53781;51.090;5.884;2022-09-27T00:13:28;12.92;80.97
66873;HTU21D;53781;51.090;5.884;2022-09-27T00:13:43;12.91;81.06
66873;HTU21D;53781;51.090;5.884;2022-09-27T00:13:58;12.92;81.03
66873;HTU21D;53781;51.090;5.884;2022-09-27T00:14:15;12.92;80.98
66873;HTU21D;53781;51.090;5.884;2022-09-27T00:14:30;12.90;80.92
66873;HTU21D;53781;51.090;5.884;2022-09-27T00:14:45;12.91;80.91
66873;HTU21D;53781;51.090;5.884;2022-09-27T00:15:00;12.92;80.88
66873;HTU21D;53781;51.090;5.884;2022-09-27T00:15:15;12.92;80.88
66873;HTU21D;53781;51.090;5.884;2022-09-27T00:15:30;12.92;80.83
66873;HTU21D;53781;51.090;5.884;2022-09-27T00:15:45;12.89;80.84
66873;HTU21D;53781;51.090;5.884;2022-09-27T00:16:02;12.91;80.85
66873;HTU21D;53781;51.090;5.884;2022-09-27T00:16:21;12.90;80.83
66873;HTU21D;53781;51.090;5.884;2022-09-27T00:16:38;12.89;80.78
66873;HTU21D;53781;51.090;5.884;2022-09-27T00:16:53;12.88;80.81
66873;HTU21D;53781;51.090;5.884;2022-09-27T00:17:08;12.91;80.76
66873;HTU21D;53781;51.090;5.884;2022-09-27T00:17:23;12.88;80.78
66873;HTU21D;53781;51.090;5.884;2022-09-27T00:17:37;12.87;80.77
66873;HTU21D;53781;51.090;5.884;2022-09-27T00:17:52;12.87;80.75
66873;HTU21D;53781;51.090;5.884;2022-09-27T00:18:08;12.87;80.78
66873;HTU21D;53781;51.090;5.884;2022-09-27T00:18:23;12.87;80.77
66873;HTU21D;53781;51.090;5.884;2022-09-27T00:18:38;12.87;80.81
66873;HTU21D;53781;51.090;5.884;2022-09-27T00:18:57;12.86;80.88
66873;HTU21D;53781;51.090;5.884;2022-09-27T00:19:19;12.85;80.91
66873;HTU21D;53781;51.090;5.884;2022-09-27T00:19:35;12.84;80.94
66873;HTU21D;53781;51.090;5.884;2022-09-27T00:19:50;12.85;80.98
66873;HTU21D;53781;51.090;5.884;2022-09-27T00:20:06;12.85;80.98
66873;HTU21D;53781;51.090;5.884;2022-09-27T00:20:21;12.84;80.95
66873;HTU21D;53781;51.090;5.884;2022-09-27T00:20:36;12.82;80.98
66873;HTU21D;53781;51.090;5.884;2022-09-27T00:20:51;12.84;81.04
66873;HTU21D;53781;51.090;5.884;2022-09-27T00:21:09;12.82;81.09
66873;HTU21D;53781;51.090;5.884;2022-09-27T00:21:24;12.81;81.10
66873;HTU21D;53781;51.090;5.884;2022-09-27T00:21:39;12.81;81.13
66873;HTU21D;53781;51.090;5.884;2022-09-27T00:21:55;12.82;81.16
66873;HTU21D;53781;51.090;5.884;2022-09-27T00:22:09;12.81;81.24
66873;HTU21D;53781;51.090;5.884;2022-09-27T00:22:25;12.84;81.24
66873;HTU21D;53781;51.090;5.884;2022-09-27T00:22:40;12.82;81.23
66873;HTU21D;53781;51.090;5.884;2022-09-27T00:22:54;12.81;81.21
66873;HTU21D;53781;51.090;5.884;2022-09-27T00:23:09;12.82;81.18
66873;HTU21D;53781;51.090;5.884;2022-09-27T00:23:24;12.82;81.19
66873;HTU21D;53781;51.090;5.884;2022-09-27T00:23:39;12.85;81.21
66873;HTU21D;53781;51.090;5.884;2022-09-27T00:23:54;12.82;81.20
66873;HTU21D;53781;51.090;5.884;2022-09-27T00:24:18;12.85;81.19
66873;HTU21D;53781;51.090;5.884;2022-09-27T00:24:32;12.86;81.13
66873;HTU21D;53781;51.090;5.884;2022-09-27T00:24:47;12.84;81.17
66873;HTU21D;53781;51.090;5.884;2022-09-27T00:25:03;12.82;81.10
66873;HTU21D;53781;51.090;5.884;2022-09-27T00:25:20;12.85;81.12
66873;HTU21D;53781;51.090;5.884;2022-09-27T00:25:35;12.82;81.14
66873;HTU21D;53781;51.090;5.884;2022-09-27T00:25:57;12.82;81.07
66873;HTU21D;53781;51.090;5.884;2022-09-27T00:26:12;12.84;81.18
66873;HTU21D;53781;51.090;5.884;2022-09-27T00:26:28;12.81;81.17
66873;HTU21D;53781;51.090;5.884;2022-09-27T00:26:43;12.82;81.09
66873;HTU21D;53781;51.090;5.884;2022-09-27T00:26:58;12.82;81.10
66873;HTU21D;53781;51.090;5.884;2022-09-27T00:27:13;12.81;81.16
66873;HTU21D;53781;51.090;5.884;2022-09-27T00:27:27;12.81;81.19
66873;HTU21D;53781;51.090;5.884;2022-09-27T00:27:42;12.84;81.09
66873;HTU21D;53781;51.090;5.884;2022-09-27T00:27:57;12.82;81.09
66873;HTU21D;53781;51.090;5.884;2022-09-27T00:28:12;12.82;81.12
66873;HTU21D;53781;51.090;5.884;2022-09-27T00:28:27;12.81;81.10
66873;HTU21D;53781;51.090;5.884;2022-09-27T00:28:42;12.81;81.10
66873;HTU21D;53781;51.090;5.884;2022-09-27T00:28:58;12.78;81.17
66873;HTU21D;53781;51.090;5.884;2022-09-27T00:29:15;12.80;81.22
66873;HTU21D;53781;51.090;5.884;2022-09-27T00:29:30;12.79;81.16
66873;HTU21D;53781;51.090;5.884;2022-09-27T00:29:45;12.81;81.14
66873;HTU21D;53781;51.090;5.884;2022-09-27T00:30:01;12.80;81.18
66873;HTU21D;53781;51.090;5.884;2022-09-27T00:30:15;12.80;81.29
66873;HTU21D;53781;51.090;5.884;2022-09-27T00:30:30;12.79;81.34
66873;HTU21D;53781;51.090;5.884;2022-09-27T00:30:45;12.78;81.38
66873;HTU21D;53781;51.090;5.884;2022-09-27T00:31:00;12.80;81.35
66873;HTU21D;53781;51.090;5.884;2022-09-27T00:31:24;12.80;81.39
66873;HTU21D;53781;51.090;5.884;2022-09-27T00:31:41;12.81;81.39
66873;HTU21D;53781;51.090;5.884;2022-09-27T00:31:56;12.81;81.41
66873;HTU21D;53781;51.090;5.884;2022-09-27T00:32:11;12.80;81.43
66873;HTU21D;53781;51.090;5.884;2022-09-27T00:32:26;12.82;81.45
66873;HTU21D;53781;51.090;5.884;2022-09-27T00:32:41;12.81;81.39
66873;HTU21D;53781;51.090;5.884;2022-09-27T00:32:55;12.82;81.36
66873;HTU21D;53781;51.090;5.884;2022-09-27T00:33:10;12.81;81.33
66873;HTU21D;53781;51.090;5.884;2022-09-27T00:33:26;12.81;81.29
66873;HTU21D;53781;51.090;5.884;2022-09-27T00:33:40;12.84;81.20
66873;HTU21D;53781;51.090;5.884;2022-09-27T00:33:57;12.84;81.20
66873;HTU21D;53781;51.090;5.884;2022-09-27T00:34:24;12.82;81.20
66873;HTU21D;53781;51.090;5.884;2022-09-27T00:34:39;12.84;81.09
66873;HTU21D;53781;51.090;5.884;2022-09-27T00:34:54;12.82;81.04
66873;HTU21D;53781;51.090;5.884;2022-09-27T00:35:08;12.82;81.08
66873;HTU21D;53781;51.090;5.884;2022-09-27T00:35:23;12.80;81.03
66873;HTU21D;53781;51.090;5.884;2022-09-27T00:35:38;12.81;81.02
66873;HTU21D;53781;51.090;5.884;2022-09-27T00:35:53;12.81;80.98
66873;HTU21D;53781;51.090;5.884;2022-09-27T00:36:08;12.80;81.01
66873;HTU21D;53781;51.090;5.884;2022-09-27T00:36:24;12.79;81.01
66873;HTU21D;53781;51.090;5.884;2022-09-27T00:36:39;12.79;81.01
66873;HTU21D;53781;51.090;5.884;2022-09-27T00:36:54;12.80;81.05
66873;HTU21D;53781;51.090;5.884;2022-09-27T00:37:09;12.81;81.01
66873;HTU21D;53781;51.090;5.884;2022-09-27T00:37:24;12.81;81.02
66873;HTU21D;53781;51.090;5.884;2022-09-27T00:37:41;12.84;80.98
66873;HTU21D;53781;51.090;5.884;2022-09-27T00:37:55;12.81;80.94
66873;HTU21D;53781;51.090;5.884;2022-09-27T00:38:10;12.79;80.88
66873;HTU21D;53781;51.090;5.884;2022-09-27T00:38:25;12.77;80.94
66873;HTU21D;53781;51.090;5.884;2022-09-27T00:38:41;12.79;80.94
66873;HTU21D;53781;51.090;5.884;2022-09-27T00:38:56;12.78;80.98
66873;HTU21D;53781;51.090;5.884;2022-09-27T00:39:13;12.78;80.99
66873;HTU21D;53781;51.090;5.884;2022-09-27T00:39:28;12.79;80.91
66873;HTU21D;53781;51.090;5.884;2022-09-27T00:39:43;12.78;80.96
66873;HTU21D;53781;51.090;5.884;2022-09-27T00:39:58;12.78;81.00
66873;HTU21D;53781;51.090;5.884;2022-09-27T00:40:14;12.77;81.01
66873;HTU21D;53781;51.090;5.884;2022-09-27T00:40:29;12.78;81.04
66873;HTU21D;53781;51.090;5.884;2022-09-27T00:40:44;12.76;81.02
66873;HTU21D;53781;51.090;5.884;2022-09-27T00:40:59;12.76;81.02
66873;HTU21D;53781;51.090;5.884;2022-09-27T00:41:21;12.78;81.04
66873;HTU21D;53781;51.090;5.884;2022-09-27T00:41:36;12.77;80.99
66873;HTU21D;53781;51.090;5.884;2022-09-27T00:41:51;12.76;80.99
66873;HTU21D;53781;51.090;5.884;2022-09-27T00:42:10;12.77;81.04
66873;HTU21D;53781;51.090;5.884;2022-09-27T00:42:25;12.76;81.05
66873;HTU21D;53781;51.090;5.884;2022-09-27T00:42:40;12.75;81.07
66873;HTU21D;53781;51.090;5.884;2022-09-27T00:42:55;12.77;81.08
66873;HTU21D;53781;51.090;5.884;2022-09-27T00:43:22;12.76;81.10
66873;HTU21D;53781;51.090;5.884;2022-09-27T00:43:46;12.77;81.13
66873;HTU21D;53781;51.090;5.884;2022-09-27T00:45:03;12.76;81.04
66873;HTU21D;53781;51.090;5.884;2022-09-27T00:45:19;12.77;81.04
66873;HTU21D;53781;51.090;5.884;2022-09-27T00:45:34;12.76;81.06
66873;HTU21D;53781;51.090;5.884;2022-09-27T00:45:58;12.75;81.04
66873;HTU21D;53781;51.090;5.884;2022-09-27T00:46:35;12.76;81.05
66873;HTU21D;53781;51.090;5.884;2022-09-27T00:47:13;12.74;81.10
66873;HTU21D;53781;51.090;5.884;2022-09-27T00:47:58;12.74;81.04
66873;HTU21D;53781;51.090;5.884;2022-09-27T00:48:18;12.73;81.01
66873;HTU21D;53781;51.090;5.884;2022-09-27T00:48:36;12.76;81.01
66873;HTU21D;53781;51.090;5.884;2022-09-27T00:49:13;12.73;81.01
66873;HTU21D;53781;51.090;5.884;2022-09-27T00:49:37;12.74;80.99
66873;HTU21D;53781;51.090;5.884;2022-09-27T00:49:59;12.73;81.06
66873;HTU21D;53781;51.090;5.884;2022-09-27T00:50:27;12.72;81.13
66873;HTU21D;53781;51.090;5.884;2022-09-27T00:50:48;12.71;81.23
66873;HTU21D;53781;51.090;5.884;2022-09-27T00:51:06;12.71;81.26
66873;HTU21D;53781;51.090;5.884;2022-09-27T00:51:23;12.70;81.27
66873;HTU21D;53781;51.090;5.884;2022-09-27T00:51:38;12.71;81.24
66873;HTU21D;53781;51.090;5.884;2022-09-27T00:52:01;12.71;81.23
66873;HTU21D;53781;51.090;5.884;2022-09-27T00:52:26;12.70;81.21
66873;HTU21D;53781;51.090;5.884;2022-09-27T00:53:32;12.69;81.29
66873;HTU21D;53781;51.090;5.884;2022-09-27T00:53:51;12.67;81.27
66873;HTU21D;53781;51.090;5.884;2022-09-27T00:54:11;12.69;81.22
66873;HTU21D;53781;51.090;5.884;2022-09-27T00:54:29;12.69;81.11
66873;HTU21D;53781;51.090;5.884;2022-09-27T00:54:50;12.70;81.13
66873;HTU21D;53781;51.090;5.884;2022-09-27T00:55:16;12.69;81.04
66873;HTU21D;53781;51.090;5.884;2022-09-27T00:55:37;12.67;81.10
66873;HTU21D;53781;51.090;5.884;2022-09-27T00:55:56;12.66;81.11
66873;HTU21D;53781;51.090;5.884;2022-09-27T00:56:18;12.65;81.15
66873;HTU21D;53781;51.090;5.884;2022-09-27T00:56:36;12.64;81.16
66873;HTU21D;53781;51.090;5.884;2022-09-27T00:56:51;12.62;81.23
66873;HTU21D;53781;51.090;5.884;2022-09-27T00:57:08;12.63;81.29
66873;HTU21D;53781;51.090;5.884;2022-09-27T00:57:23;12.63;81.29
66873;HTU21D;53781;51.090;5.884;2022-09-27T00:57:40;12.64;81.36
66873;HTU21D;53781;51.090;5.884;2022-09-27T00:57:56;12.64;81.46
66873;HTU21D;53781;51.090;5.884;2022-09-27T00:58:14;12.63;81.49
66873;HTU21D;53781;51.090;5.884;2022-09-27T00:58:36;12.64;81.49
66873;HTU21D;53781;51.090;5.884;2022-09-27T00:59:19;12.67;81.46
66873;HTU21D;53781;51.090;5.884;2022-09-27T00:59:43;12.70;81.43
66873;HTU21D;53781;51.090;5.884;2022-09-27T01:00:08;12.66;81.42
66873;HTU21D;53781;51.090;5.884;2022-09-27T01:00:23;12.69;81.49
66873;HTU21D;53781;51.090;5.884;2022-09-27T01:00:44;12.65;81.49
66873;HTU21D;53781;51.090;5.884;2022-09-27T01:01:02;12.67;81.44
66873;HTU21D;53781;51.090;5.884;2022-09-27T01:01:19;12.67;81.46
66873;HTU21D;53781;51.090;5.884;2022-09-27T01:01:34;12.67;81.46
66873;HTU21D;53781;51.090;5.884;2022-09-27T01:01:49;12.67;81.45
66873;HTU21D;53781;51.090;5.884;2022-09-27T01:02:06;12.66;81.50
66873;HTU21D;53781;51.090;5.884;2022-09-27T01:02:21;12.66;81.46
66873;HTU21D;53781;51.090;5.884;2022-09-27T01:02:43;12.65;81.51
66873;HTU21D;53781;51.090;5.884;2022-09-27T01:03:04;12.65;81.51
66873;HTU21D;53781;51.090;5.884;2022-09-27T01:03:38;12.65;81.44
66873;HTU21D;53781;51.090;5.884;2022-09-27T01:04:23;12.64;81.46
66873;HTU21D;53781;51.090;5.884;2022-09-27T01:04:43;12.65;81.46
66873;HTU21D;53781;51.090;5.884;2022-09-27T01:05:00;12.63;81.59
66873;HTU21D;53781;51.090;5.884;2022-09-27T01:05:18;12.64;81.53
66873;HTU21D;53781;51.090;5.884;2022-09-27T01:05:34;12.62;81.62
66873;HTU21D;53781;51.090;5.884;2022-09-27T01:05:49;12.62;81.65
66873;HTU21D;53781;51.090;5.884;2022-09-27T01:06:07;12.61;81.63
66873;HTU21D;53781;51.090;5.884;2022-09-27T01:06:22;12.61;81.65
66873;HTU21D;53781;51.090;5.884;2022-09-27T01:06:37;12.60;81.70
66873;HTU21D;53781;51.090;5.884;2022-09-27T01:06:52;12.60;81.73
66873;HTU21D;53781;51.090;5.884;2022-09-27T01:07:08;12.61;81.68
66873;HTU21D;53781;51.090;5.884;2022-09-27T01:07:22;12.59;81.72
66873;HTU21D;53781;51.090;5.884;2022-09-27T01:07:37;12.59;81.66
66873;HTU21D;53781;51.090;5.884;2022-09-27T01:07:52;12.56;81.71
66873;HTU21D;53781;51.090;5.884;2022-09-27T01:08:13;12.56;81.72
66873;HTU21D;53781;51.090;5.884;2022-09-27T01:08:28;12.53;81.78
66873;HTU21D;53781;51.090;5.884;2022-09-27T01:08:42;12.53;81.83
66873;HTU21D;53781;51.090;5.884;2022-09-27T01:08:57;12.52;81.88
66873;HTU21D;53781;51.090;5.884;2022-09-27T01:09:12;12.50;81.92
66873;HTU21D;53781;51.090;5.884;2022-09-27T01:09:27;12.53;81.95
66873;HTU21D;53781;51.090;5.884;2022-09-27T01:09:42;12.51;82.00
66873;HTU21D;53781;51.090;5.884;2022-09-27T01:09:57;12.49;81.93
66873;HTU21D;53781;51.090;5.884;2022-09-27T01:10:15;12.47;82.04
66873;HTU21D;53781;51.090;5.884;2022-09-27T01:10:39;12.48;82.02
66873;HTU21D;53781;51.090;5.884;2022-09-27T01:11:12;12.45;82.06
66873;HTU21D;53781;51.090;5.884;2022-09-27T01:11:41;12.48;82.20
66873;HTU21D;53781;51.090;5.884;2022-09-27T01:13:18;12.42;82.13
66873;HTU21D;53781;51.090;5.884;2022-09-27T01:14:51;12.40;82.36
66873;HTU21D;53781;51.090;5.884;2022-09-27T01:16:15;12.37;82.45
66873;HTU21D;53781;51.090;5.884;2022-09-27T01:16:43;12.37;82.55
66873;HTU21D;53781;51.090;5.884;2022-09-27T01:17:48;12.37;82.61
66873;HTU21D;53781;51.090;5.884;2022-09-27T01:18:37;12.35;82.75
66873;HTU21D;53781;51.090;5.884;2022-09-27T01:20:04;12.36;82.70
66873;HTU21D;53781;51.090;5.884;2022-09-27T01:21:49;12.35;82.84
66873;HTU21D;53781;51.090;5.884;2022-09-27T01:22:54;12.33;82.76
66873;HTU21D;53781;51.090;5.884;2022-09-27T01:23:39;12.29;82.88
66873;HTU21D;53781;51.090;5.884;2022-09-27T01:24:20;12.28;82.90
66873;HTU21D;53781;51.090;5.884;2022-09-27T01:25:50;12.29;83.12
66873;HTU21D;53781;51.090;5.884;2022-09-27T01:26:25;12.28;83.15
66873;HTU21D;53781;51.090;5.884;2022-09-27T01:29:22;12.28;83.15
66873;HTU21D;53781;51.090;5.884;2022-09-27T01:31:39;12.33;83.01
66873;HTU21D;53781;51.090;5.884;2022-09-27T01:32:15;12.29;82.96
66873;HTU21D;53781;51.090;5.884;2022-09-27T01:35:31;12.23;83.00
66873;HTU21D;53781;51.090;5.884;2022-09-27T01:37:42;12.19;83.18
66873;HTU21D;53781;51.090;5.884;2022-09-27T01:38:36;12.18;83.24
66873;HTU21D;53781;51.090;5.884;2022-09-27T01:41:35;12.16;83.29
66873;HTU21D;53781;51.090;5.884;2022-09-27T01:43:00;12.14;83.36
66873;HTU21D;53781;51.090;5.884;2022-09-27T01:43:31;12.15;83.32
66873;HTU21D;53781;51.090;5.884;2022-09-27T01:44:04;12.14;83.29
66873;HTU21D;53781;51.090;5.884;2022-09-27T01:44:49;12.15;83.34
66873;HTU21D;53781;51.090;5.884;2022-09-27T01:45:28;12.14;83.33
66873;HTU21D;53781;51.090;5.884;2022-09-27T01:45:58;12.15;83.39
66873;HTU21D;53781;51.090;5.884;2022-09-27T01:46:54;12.15;83.31
66873;HTU21D;53781;51.090;5.884;2022-09-27T01:47:46;12.16;83.30
66873;HTU21D;53781;51.090;5.884;2022-09-27T01:48:34;12.16;83.18
66873;HTU21D;53781;51.090;5.884;2022-09-27T01:49:04;12.17;83.25
66873;HTU21D;53781;51.090;5.884;2022-09-27T01:49:29;12.18;83.18
66873;HTU21D;53781;51.090;5.884;2022-09-27T01:49:55;12.16;83.15
66873;HTU21D;53781;51.090;5.884;2022-09-27T01:50:26;12.17;83.09
66873;HTU21D;53781;51.090;5.884;2022-09-27T01:51:01;12.19;83.13
66873;HTU21D;53781;51.090;5.884;2022-09-27T01:51:29;12.19;83.13
66873;HTU21D;53781;51.090;5.884;2022-09-27T01:51:57;12.18;83.11
66873;HTU21D;53781;51.090;5.884;2022-09-27T01:52:18;12.18;83.07
66873;HTU21D;53781;51.090;5.884;2022-09-27T01:52:41;12.20;83.06
66873;HTU21D;53781;51.090;5.884;2022-09-27T01:53:06;12.21;83.07
66873;HTU21D;53781;51.090;5.884;2022-09-27T01:53:47;12.18;83.00
66873;HTU21D;53781;51.090;5.884;2022-09-27T01:54:25;12.20;82.87
66873;HTU21D;53781;51.090;5.884;2022-09-27T01:55:10;12.18;82.88
66873;HTU21D;53781;51.090;5.884;2022-09-27T01:55:32;12.17;82.84
66873;HTU21D;53781;51.090;5.884;2022-09-27T01:56:32;12.18;83.00
66873;HTU21D;53781;51.090;5.884;2022-09-27T01:56:56;12.17;83.03
66873;HTU21D;53781;51.090;5.884;2022-09-27T01:57:23;12.17;83.06
66873;HTU21D;53781;51.090;5.884;2022-09-27T01:57:45;12.17;83.08
66873;HTU21D;53781;51.090;5.884;2022-09-27T01:58:45;12.19;83.07
66873;HTU21D;53781;51.090;5.884;2022-09-27T01:59:48;12.20;83.09
66873;HTU21D;53781;51.090;5.884;2022-09-27T02:00:23;12.20;82.98
66873;HTU21D;53781;51.090;5.884;2022-09-27T02:00:41;12.19;82.92
66873;HTU21D;53781;51.090;5.884;2022-09-27T02:00:59;12.18;82.93
66873;HTU21D;53781;51.090;5.884;2022-09-27T02:01:17;12.17;82.94
66873;HTU21D;53781;51.090;5.884;2022-09-27T02:01:36;12.17;82.98
66873;HTU21D;53781;51.090;5.884;2022-09-27T02:01:56;12.18;82.94
66873;HTU21D;53781;51.090;5.884;2022-09-27T02:02:23;12.16;83.01
66873;HTU21D;53781;51.090;5.884;2022-09-27T02:03:23;12.15;82.82
66873;HTU21D;53781;51.090;5.884;2022-09-27T02:04:00;12.14;82.81
66873;HTU21D;53781;51.090;5.884;2022-09-27T02:04:39;12.13;82.85
66873;HTU21D;53781;51.090;5.884;2022-09-27T02:05:07;12.14;82.93
66873;HTU21D;53781;51.090;5.884;2022-09-27T02:05:31;12.15;82.97
66873;HTU21D;53781;51.090;5.884;2022-09-27T02:06:07;12.13;82.94
66873;HTU21D;53781;51.090;5.884;2022-09-27T02:06:52;12.15;82.92
66873;HTU21D;53781;51.090;5.884;2022-09-27T02:07:26;12.15;82.95
66873;HTU21D;53781;51.090;5.884;2022-09-27T02:07:50;12.15;82.86
66873;HTU21D;53781;51.090;5.884;2022-09-27T02:08:23;12.15;82.79
66873;HTU21D;53781;51.090;5.884;2022-09-27T02:08:47;12.16;82.73
66873;HTU21D;53781;51.090;5.884;2022-09-27T02:10:08;12.16;82.86
66873;HTU21D;53781;51.090;5.884;2022-09-27T02:10:40;12.17;82.91
66873;HTU21D;53781;51.090;5.884;2022-09-27T02:11:09;12.19;82.93
66873;HTU21D;53781;51.090;5.884;2022-09-27T02:11:26;12.20;82.92
66873;HTU21D;53781;51.090;5.884;2022-09-27T02:11:54;12.19;82.89
66873;HTU21D;53781;51.090;5.884;2022-09-27T02:12:18;12.23;82.87
66873;HTU21D;53781;51.090;5.884;2022-09-27T02:12:41;12.22;82.81
66873;HTU21D;53781;51.090;5.884;2022-09-27T02:13:17;12.25;82.80
66873;HTU21D;53781;51.090;5.884;2022-09-27T02:15:10;12.27;82.62
66873;HTU21D;53781;51.090;5.884;2022-09-27T02:15:26;12.29;82.64
66873;HTU21D;53781;51.090;5.884;2022-09-27T02:16:32;12.27;82.65
66873;HTU21D;53781;51.090;5.884;2022-09-27T02:17:11;12.29;82.62
66873;HTU21D;53781;51.090;5.884;2022-09-27T02:17:54;12.31;82.62
66873;HTU21D;53781;51.090;5.884;2022-09-27T02:18:17;12.32;82.60
66873;HTU21D;53781;51.090;5.884;2022-09-27T02:19:07;12.32;82.57
66873;HTU21D;53781;51.090;5.884;2022-09-27T02:19:53;12.34;82.53
66873;HTU21D;53781;51.090;5.884;2022-09-27T02:20:28;12.34;82.46
66873;HTU21D;53781;51.090;5.884;2022-09-27T02:20:51;12.35;82.38
66873;HTU21D;53781;51.090;5.884;2022-09-27T02:21:12;12.35;82.30
66873;HTU21D;53781;51.090;5.884;2022-09-27T02:22:00;12.36;82.28
66873;HTU21D;53781;51.090;5.884;2022-09-27T02:23:47;12.34;82.07
66873;HTU21D;53781;51.090;5.884;2022-09-27T02:24:09;12.34;82.07
66873;HTU21D;53781;51.090;5.884;2022-09-27T02:24:40;12.32;82.07
66873;HTU21D;53781;51.090;5.884;2022-09-27T02:25:08;12.33;81.92
66873;HTU21D;53781;51.090;5.884;2022-09-27T02:25:59;12.32;81.84
66873;HTU21D;53781;51.090;5.884;2022-09-27T02:26:30;12.32;81.94
66873;HTU21D;53781;51.090;5.884;2022-09-27T02:26:54;12.30;81.94
66873;HTU21D;53781;51.090;5.884;2022-09-27T02:27:19;12.30;81.97
66873;HTU21D;53781;51.090;5.884;2022-09-27T02:28:01;12.29;81.99
66873;HTU21D;53781;51.090;5.884;2022-09-27T02:29:23;12.28;81.91
66873;HTU21D;53781;51.090;5.884;2022-09-27T02:29:52;12.28;81.86
66873;HTU21D;53781;51.090;5.884;2022-09-27T02:30:11;12.26;81.81
66873;HTU21D;53781;51.090;5.884;2022-09-27T02:30:28;12.25;81.81
66873;HTU21D;53781;51.090;5.884;2022-09-27T02:30:52;12.23;81.84
66873;HTU21D;53781;51.090;5.884;2022-09-27T02:31:10;12.22;81.88
66873;HTU21D;53781;51.090;5.884;2022-09-27T02:31:26;12.21;82.00
66873;HTU21D;53781;51.090;5.884;2022-09-27T02:31:42;12.22;82.00
66873;HTU21D;53781;51.090;5.884;2022-09-27T02:31:57;12.22;82.02
66873;HTU21D;53781;51.090;5.884;2022-09-27T02:32:12;12.20;82.05
66873;HTU21D;53781;51.090;5.884;2022-09-27T02:32:27;12.20;82.08
66873;HTU21D;53781;51.090;5.884;2022-09-27T02:32:43;12.22;82.09
66873;HTU21D;53781;51.090;5.884;2022-09-27T02:32:58;12.22;82.11
66873;HTU21D;53781;51.090;5.884;2022-09-27T02:33:13;12.21;82.04
66873;HTU21D;53781;51.090;5.884;2022-09-27T02:33:48;12.22;82.02
66873;HTU21D;53781;51.090;5.884;2022-09-27T02:34:11;12.20;81.96
66873;HTU21D;53781;51.090;5.884;2022-09-27T02:34:32;12.20;81.88
66873;HTU21D;53781;51.090;5.884;2022-09-27T02:34:51;12.21;81.83
66873;HTU21D;53781;51.090;5.884;2022-09-27T02:35:34;12.20;81.81
66873;HTU21D;53781;51.090;5.884;2022-09-27T02:35:49;12.20;81.82
66873;HTU21D;53781;51.090;5.884;2022-09-27T02:36:04;12.19;81.82
66873;HTU21D;53781;51.090;5.884;2022-09-27T02:36:20;12.19;81.81
66873;HTU21D;53781;51.090;5.884;2022-09-27T02:36:36;12.19;81.88
66873;HTU21D;53781;51.090;5.884;2022-09-27T02:36:52;12.18;81.84
66873;HTU21D;53781;51.090;5.884;2022-09-27T02:37:08;12.18;81.81
66873;HTU21D;53781;51.090;5.884;2022-09-27T02:37:23;12.20;81.87
66873;HTU21D;53781;51.090;5.884;2022-09-27T02:37:38;12.17;81.83
66873;HTU21D;53781;51.090;5.884;2022-09-27T02:37:54;12.17;81.74
66873;HTU21D;53781;51.090;5.884;2022-09-27T02:38:08;12.17;81.83
66873;HTU21D;53781;51.090;5.884;2022-09-27T02:38:24;12.18;81.75
66873;HTU21D;53781;51.090;5.884;2022-09-27T02:38:42;12.16;81.81
66873;HTU21D;53781;51.090;5.884;2022-09-27T02:38:57;12.17;81.85
66873;HTU21D;53781;51.090;5.884;2022-09-27T02:39:12;12.17;81.79
66873;HTU21D;53781;51.090;5.884;2022-09-27T02:39:27;12.17;81.76
66873;HTU21D;53781;51.090;5.884;2022-09-27T02:39:48;12.18;81.74
66873;HTU21D;53781;51.090;5.884;2022-09-27T02:40:04;12.17;81.74
66873;HTU21D;53781;51.090;5.884;2022-09-27T02:40:20;12.17;81.76